Tipler, Wisconsin
Current Conditions -  °F | °C
As of 8:55 PM on Tuesday 25 Nov 2014 (Local Time) from KEGV Reporting Station
Clear Clear  
Wind Chill:   Ceiling: Unl
Heat Index:   Visibility: 7mi
Dew Point: -2°   Wind: 0mph
Humidity: 81%   Direction: NA
Pressure: 30.03"   Gusts: NA
Location:  45.9186°N, 88.7601°W
Report Text: KEGV 260255Z AUTO 00000KT 7SM CLR M16/M19 A3003 RMK AO2 T11641190
Loading
Personal Weather Stations






























Interactive Weather Map New forecast layout! Learn more

10-Day Weather Forecast

Advertisements
Track Severe Weather on mobile